Time;durP1;ratioP1;P1;durP2;ratioP2;P2;SDS_P1;SDS_P2;PMS_P1;PMS_P2;Temp;Humidity;BMP_temperature;BMP_pressure;BME280_temperature;BME280_humidity;BME280_pressure;Samples;Min_cycle;Max_cycle;Signal;HPM_P1;HPM_P2
2022/06/07 00:01:34;;;;;;;3.57;2.93;;;12.50;93.00;;;;;;5054795;28;20184;-85
2022/06/07 00:04:00;;;;;;;4.30;2.80;;;12.50;93.00;;;;;;5054858;28;20204;-85
2022/06/07 00:06:27;;;;;;;3.30;3.00;;;12.50;93.00;;;;;;5054663;28;20737;-85
2022/06/07 00:08:52;;;;;;;3.30;2.97;;;12.50;92.90;;;;;;5055864;28;20257;-85
2022/06/07 00:11:18;;;;;;;3.57;2.80;;;12.50;92.80;;;;;;5056152;28;20635;-86
2022/06/07 00:13:45;;;;;;;10.97;3.20;;;12.50;92.60;;;;;;5054519;28;20175;-85
2022/06/07 00:16:12;;;;;;;3.20;3.00;;;12.50;92.50;;;;;;5054222;28;20230;-86
2022/06/07 00:18:37;;;;;;;4.37;3.30;;;12.50;92.40;;;;;;5055885;28;20191;-86
2022/06/07 00:21:03;;;;;;;3.40;3.20;;;12.50;92.40;;;;;;5054359;28;20645;-86
2022/06/07 00:23:30;;;;;;;4.43;3.83;;;12.50;92.40;;;;;;5054447;28;20168;-86
2022/06/07 00:25:56;;;;;;;4.00;3.70;;;12.50;92.30;;;;;;5054039;28;20176;-85
2022/06/07 00:28:22;;;;;;;4.40;4.00;;;12.50;92.40;;;;;;5055555;28;20704;-85
2022/06/07 00:30:48;;;;;;;4.10;3.77;;;12.60;92.40;;;;;;5055251;28;20196;-86
2022/06/07 00:33:14;;;;;;;9.10;4.77;;;12.60;92.40;;;;;;5053838;28;20176;-85
2022/06/07 00:35:40;;;;;;;5.30;4.80;;;12.50;92.30;;;;;;5054602;28;20318;-85
2022/06/07 00:38:06;;;;;;;5.60;5.10;;;12.60;92.30;;;;;;5054383;28;20234;-85
2022/06/07 00:40:32;;;;;;;6.23;5.67;;;12.60;92.30;;;;;;5054579;28;20199;-86
2022/06/07 00:42:57;;;;;;;6.13;5.50;;;12.70;92.20;;;;;;5054616;28;20180;-86
2022/06/07 00:45:24;;;;;;;6.30;5.70;;;12.60;92.20;;;;;;5054588;28;20222;-85
2022/06/07 00:47:49;;;;;;;16.00;7.27;;;12.60;92.20;;;;;;5054172;28;20216;-85
2022/06/07 00:50:29;;;;;;;7.80;7.00;;;12.60;92.40;;;;;;5054402;28;20230;-85
2022/06/07 00:52:54;;;;;;;8.87;7.97;;;12.60;92.40;;;;;;5055762;28;20572;-86
2022/06/07 00:55:20;;;;;;;8.57;7.87;;;12.50;92.30;;;;;;5056594;28;20217;-86
2022/06/07 00:57:46;;;;;;;9.00;8.17;;;12.50;92.20;;;;;;5056202;28;20250;-86
2022/06/07 01:00:15;;;;;;;8.37;7.57;;;12.50;92.20;;;;;;5054802;28;20176;-86
2022/06/07 01:02:40;;;;;;;9.43;7.57;;;12.50;92.20;;;;;;5055689;28;20181;-86
2022/06/07 01:05:06;;;;;;;11.93;8.50;;;12.50;92.00;;;;;;5054308;28;20222;-86
2022/06/07 01:12:59;;;;;;;10.70;7.87;;;12.50;91.70;;;;;;5056409;28;20182;-86
2022/06/07 01:15:25;;;;;;;7.50;6.70;;;12.50;91.80;;;;;;5056300;28;20168;-86
2022/06/07 01:17:51;;;;;;;7.47;6.77;;;12.40;91.80;;;;;;5054600;28;20195;-86
2022/06/07 01:20:16;;;;;;;9.10;5.87;;;12.40;91.80;;;;;;5054786;28;20172;-86
2022/06/07 01:22:42;;;;;;;7.47;5.83;;;12.40;91.80;;;;;;5055771;28;20168;-86
2022/06/07 01:25:08;;;;;;;11.20;7.40;;;12.40;91.70;;;;;;5055731;28;20562;-86
2022/06/07 01:27:34;;;;;;;8.60;6.27;;;12.50;91.70;;;;;;5055008;28;20196;-86
2022/06/07 01:29:59;;;;;;;7.10;5.63;;;12.50;91.70;;;;;;5054282;28;20646;-86
2022/06/07 01:32:25;;;;;;;7.43;6.43;;;12.50;91.70;;;;;;5053869;28;20622;-85
2022/06/07 01:34:53;;;;;;;6.53;5.50;;;12.50;91.80;;;;;;5053764;28;20245;-84
2022/06/07 01:37:19;;;;;;;6.93;5.53;;;12.50;91.90;;;;;;5053410;28;20222;-84
2022/06/07 01:42:29;;;;;;;6.30;5.70;;;12.50;91.90;;;;;;5055974;28;20270;-84
2022/06/07 01:44:56;;;;;;;8.20;5.37;;;12.50;92.10;;;;;;5055494;28;20202;-85
2022/06/07 01:47:24;;;;;;;7.53;5.70;;;12.60;92.10;;;;;;5054987;28;20681;-85
2022/06/07 01:49:51;;;;;;;6.80;5.20;;;12.50;92.10;;;;;;5054887;28;20156;-86
2022/06/07 01:52:18;;;;;;;6.37;5.50;;;12.50;92.10;;;;;;5052915;28;20597;-86
2022/06/07 01:54:44;;;;;;;6.13;5.20;;;12.60;92.10;;;;;;5054269;28;20556;-87
2022/06/07 01:57:10;;;;;;;5.83;5.27;;;12.60;92.10;;;;;;5054188;28;20199;-87
2022/06/07 01:59:38;;;;;;;8.40;5.47;;;12.60;92.10;;;;;;5054339;28;20168;-87
2022/06/07 02:02:05;;;;;;;7.27;5.90;;;12.60;92.10;;;;;;5053367;28;20186;-87
2022/06/07 02:04:30;;;;;;;5.80;5.30;;;12.60;92.20;;;;;;5052901;28;20808;-87
2022/06/07 02:06:56;;;;;;;7.83;5.70;;;12.70;92.10;;;;;;5054334;28;20208;-87
2022/06/07 02:09:22;;;;;;;12.00;5.77;;;12.70;92.20;;;;;;5054375;28;20545;-87
2022/06/07 02:11:47;;;;;;;6.43;5.13;;;12.60;92.20;;;;;;5053053;28;20176;-86
2022/06/07 02:14:13;;;;;;;18.07;5.43;;;12.60;92.20;;;;;;5052954;28;20215;-87
2022/06/07 02:16:39;;;;;;;7.07;5.30;;;12.70;92.30;;;;;;5053001;28;20196;-87
2022/06/07 02:19:06;;;;;;;9.27;5.87;;;12.60;92.40;;;;;;5052849;28;20669;-87
2022/06/07 02:21:31;;;;;;;6.67;6.03;;;12.60;92.30;;;;;;5054513;28;20179;-85
2022/06/07 02:23:58;;;;;;;6.77;5.20;;;12.70;92.20;;;;;;5052820;28;20204;-86
2022/06/07 02:26:44;;;;;;;8.63;5.97;;;12.60;92.00;;;;;;5052955;28;20196;-86
2022/06/07 02:29:25;;;;;;;9.10;6.00;;;12.60;92.00;;;;;;5052333;28;20230;-86
2022/06/07 02:31:57;;;;;;;6.97;5.27;;;12.70;91.90;;;;;;5054200;28;20152;-86
2022/06/07 02:34:23;;;;;;;6.70;5.77;;;12.70;91.90;;;;;;5053120;28;20182;-87
2022/06/07 02:36:52;;;;;;;5.37;4.87;;;12.70;92.00;;;;;;5052946;28;20200;-86
2022/06/07 02:39:18;;;;;;;8.40;6.77;;;12.70;91.90;;;;;;5052795;28;20658;-86
2022/06/07 02:41:45;;;;;;;7.37;6.50;;;12.70;92.00;;;;;;5052344;28;20222;-86
2022/06/07 02:44:11;;;;;;;7.60;6.80;;;12.70;91.90;;;;;;5054031;28;20258;-86
2022/06/07 02:46:36;;;;;;;7.77;7.07;;;12.70;91.80;;;;;;5054421;28;20386;-86
2022/06/07 02:49:03;;;;;;;7.40;6.70;;;12.70;91.90;;;;;;5052548;28;20223;-86
2022/06/07 02:51:28;;;;;;;7.87;7.07;;;12.70;92.00;;;;;;5053908;28;20168;-88
2022/06/07 02:53:56;;;;;;;7.33;6.67;;;12.70;92.00;;;;;;5052334;28;20179;-86
2022/06/07 02:56:22;;;;;;;8.33;6.13;;;12.80;91.90;;;;;;5056245;28;20291;-86
2022/06/07 02:58:47;;;;;;;7.13;6.27;;;12.70;92.00;;;;;;5057474;28;20255;-86
2022/06/07 03:01:13;;;;;;;6.93;6.33;;;12.70;92.00;;;;;;5057624;28;20532;-86
2022/06/07 03:03:39;;;;;;;6.97;6.33;;;12.70;91.90;;;;;;5056317;28;20248;-86
2022/06/07 03:06:05;;;;;;;7.63;5.97;;;12.80;91.80;;;;;;5057652;28;20180;-86
2022/06/07 03:08:30;;;;;;;6.83;5.47;;;12.80;91.50;;;;;;5056390;28;20203;-88
2022/06/07 03:10:57;;;;;;;5.33;4.83;;;12.70;91.40;;;;;;5057704;28;20514;-87
2022/06/07 03:13:22;;;;;;;5.20;4.70;;;12.80;91.30;;;;;;5055752;28;20172;-86
2022/06/07 03:15:48;;;;;;;4.90;4.40;;;12.80;91.00;;;;;;5055817;28;20237;-86
2022/06/07 03:18:14;;;;;;;5.27;4.60;;;12.80;90.90;;;;;;5056774;28;20241;-86
2022/06/07 03:20:41;;;;;;;6.73;3.80;;;12.80;90.90;;;;;;5055879;28;20191;-86
2022/06/07 03:23:07;;;;;;;5.00;4.43;;;12.80;90.80;;;;;;5055526;28;20180;-86
2022/06/07 03:25:33;;;;;;;5.43;4.10;;;12.80;90.80;;;;;;5056724;28;20278;-86
2022/06/07 03:27:59;;;;;;;7.20;4.73;;;12.80;90.80;;;;;;5056727;28;20678;-86
2022/06/07 03:30:25;;;;;;;4.70;4.30;;;12.80;90.60;;;;;;5055690;28;20183;-87
2022/06/07 03:32:51;;;;;;;5.00;4.17;;;12.80;90.60;;;;;;5057034;28;20187;-86
2022/06/07 03:35:16;;;;;;;5.27;3.53;;;12.80;90.50;;;;;;5055637;28;20582;-86
2022/06/07 03:37:42;;;;;;;4.80;3.40;;;12.80;90.40;;;;;;5056856;28;20192;-87
2022/06/07 03:40:11;;;;;;;4.10;3.57;;;12.80;90.10;;;;;;5055348;28;20184;-87
2022/06/07 03:42:37;;;;;;;5.17;3.70;;;12.80;90.10;;;;;;5054779;28;20233;-86
2022/06/07 03:45:03;;;;;;;3.77;3.40;;;12.80;90.10;;;;;;5054717;28;20218;-87
2022/06/07 03:47:29;;;;;;;5.77;3.50;;;12.80;90.20;;;;;;5055864;28;20210;-87
2022/06/07 03:49:54;;;;;;;4.47;3.53;;;12.80;90.20;;;;;;5056281;28;20161;-87
2022/06/07 03:52:20;;;;;;;4.03;3.37;;;12.80;90.10;;;;;;5056194;28;20179;-86
2022/06/07 03:54:48;;;;;;;4.30;3.87;;;12.80;90.00;;;;;;5055050;28;20184;-86
2022/06/07 03:57:14;;;;;;;6.43;3.70;;;12.80;90.00;;;;;;5055019;28;20557;-87
2022/06/07 03:59:39;;;;;;;4.77;3.47;;;12.80;90.00;;;;;;5054960;28;20180;-86
2022/06/07 04:02:05;;;;;;;6.40;3.73;;;12.70;89.90;;;;;;5054835;28;20527;-87
2022/06/07 04:04:31;;;;;;;5.20;3.43;;;12.80;90.00;;;;;;5054577;28;20200;-86
2022/06/07 04:09:41;;;;;;;7.20;3.40;;;12.80;90.10;;;;;;5056268;28;20531;-86
2022/06/07 04:12:08;;;;;;;3.80;3.50;;;12.80;89.90;;;;;;5056092;28;20168;-87
2022/06/07 04:14:39;;;;;;;4.93;4.40;;;12.70;90.20;;;;;;5054631;28;20665;-86
2022/06/07 04:17:05;;;;;;;4.90;4.47;;;12.70;90.30;;;;;;5054713;28;20215;-86
2022/06/07 04:19:33;;;;;;;5.40;4.03;;;12.70;90.40;;;;;;5054607;28;20180;-86
2022/06/07 04:21:58;;;;;;;5.50;4.67;;;12.70;90.40;;;;;;5055071;28;20541;-86
2022/06/07 04:24:24;;;;;;;4.87;4.27;;;12.70;90.40;;;;;;5054616;28;20291;-86
2022/06/07 04:26:49;;;;;;;4.93;4.40;;;12.70;90.20;;;;;;5054609;28;20666;-86
2022/06/07 04:29:15;;;;;;;5.43;4.30;;;12.70;90.40;;;;;;5054643;28;20649;-87
2022/06/07 04:31:41;;;;;;;5.60;3.47;;;12.70;90.60;;;;;;5054256;28;20657;-86
2022/06/07 04:34:06;;;;;;;5.37;4.87;;;12.70;90.50;;;;;;5055401;28;20199;-86
2022/06/07 04:36:32;;;;;;;5.63;5.13;;;12.70;90.60;;;;;;5054118;28;20204;-86
2022/06/07 04:39:00;;;;;;;5.63;4.80;;;12.70;90.30;;;;;;5054178;28;20558;-86
2022/06/07 04:41:26;;;;;;;6.63;5.23;;;12.70;90.30;;;;;;5053974;28;20194;-86
2022/06/07 04:43:53;;;;;;;4.93;4.43;;;12.80;90.10;;;;;;5054207;28;20263;-86
2022/06/07 04:46:20;;;;;;;6.10;5.13;;;12.70;89.90;;;;;;5054894;28;20175;-86
2022/06/07 04:48:47;;;;;;;5.00;4.50;;;12.80;89.90;;;;;;5054198;28;20188;-86
2022/06/07 04:51:16;;;;;;;6.40;5.80;;;12.80;90.20;;;;;;5054271;28;20235;-86
2022/06/07 04:53:42;;;;;;;5.73;5.23;;;12.80;90.00;;;;;;5054075;28;20172;-86
2022/06/07 04:56:10;;;;;;;7.00;5.27;;;12.80;89.90;;;;;;5053585;28;20199;-87
2022/06/07 04:58:35;;;;;;;8.23;6.73;;;12.80;89.90;;;;;;5053626;28;20630;-86
2022/06/07 05:01:08;;;;;;;11.30;6.73;;;12.80;89.90;;;;;;5055339;28;20259;-86
2022/06/07 05:03:33;;;;;;;7.07;6.23;;;12.90;90.10;;;;;;5066814;28;20187;-87
2022/06/07 05:05:59;;;;;;;7.67;6.97;;;12.90;90.00;;;;;;5066875;28;20686;-87
2022/06/07 05:08:24;;;;;;;6.93;6.23;;;13.00;90.00;;;;;;5066771;28;20692;-87
2022/06/07 05:10:50;;;;;;;8.57;7.77;;;13.00;90.00;;;;;;5067999;28;20182;-86
2022/06/07 05:13:15;;;;;;;8.20;7.23;;;13.00;90.20;;;;;;5069213;28;20255;-87
2022/06/07 05:15:41;;;;;;;10.23;7.57;;;13.00;90.00;;;;;;5067633;28;20176;-86
2022/06/07 05:18:07;;;;;;;8.40;7.53;;;13.00;90.00;;;;;;5067052;28;20203;-86
2022/06/07 05:20:33;;;;;;;10.90;8.83;;;13.10;90.10;;;;;;5065998;28;20176;-86
2022/06/07 05:22:58;;;;;;;8.37;7.07;;;13.10;89.90;;;;;;5067868;28;20190;-86
2022/06/07 05:25:24;;;;;;;8.90;7.17;;;13.20;89.80;;;;;;5066279;28;20204;-85
2022/06/07 05:27:50;;;;;;;8.63;6.63;;;13.20;89.60;;;;;;5067818;28;20290;-86
2022/06/07 05:30:16;;;;;;;8.30;6.97;;;13.20;89.20;;;;;;5067927;28;20172;-87
2022/06/07 05:32:42;;;;;;;8.80;6.93;;;13.20;88.90;;;;;;5066989;28;20183;-87
2022/06/07 05:35:08;;;;;;;9.13;8.13;;;13.20;88.90;;;;;;5067263;28;20243;-87
2022/06/07 05:37:34;;;;;;;6.97;6.27;;;13.20;89.00;;;;;;5067987;28;20207;-87
2022/06/07 05:40:02;;;;;;;8.60;6.53;;;13.20;89.20;;;;;;5067771;28;20179;-88
2022/06/07 05:42:29;;;;;;;7.80;7.03;;;13.20;89.20;;;;;;5068586;28;20166;-88
2022/06/07 05:44:54;;;;;;;7.00;6.00;;;13.30;89.00;;;;;;5068332;28;20208;-87
2022/06/07 05:47:20;;;;;;;5.43;4.93;;;13.30;89.10;;;;;;5068211;28;20196;-87
2022/06/07 05:49:45;;;;;;;8.23;7.43;;;13.30;89.10;;;;;;5067659;28;20160;-88
2022/06/07 05:52:11;;;;;;;8.17;6.90;;;13.40;89.10;;;;;;5068066;28;20524;-88
2022/06/07 05:54:40;;;;;;;9.77;7.83;;;13.40;88.80;;;;;;5068048;28;20638;-88
2022/06/07 05:57:07;;;;;;;9.57;7.73;;;13.50;88.80;;;;;;5065865;28;20200;-87
2022/06/07 05:59:33;;;;;;;8.80;8.00;;;13.50;88.50;;;;;;5064871;28;20180;-87
2022/06/07 06:01:59;;;;;;;8.60;7.50;;;13.50;88.80;;;;;;5065685;28;20172;-87
2022/06/07 06:04:25;;;;;;;12.27;9.30;;;13.50;88.60;;;;;;5066485;28;20739;-87
2022/06/07 06:06:54;;;;;;;8.83;7.90;;;13.60;88.80;;;;;;5064261;28;20235;-87
2022/06/07 06:12:04;;;;;;;10.73;9.70;;;13.70;88.60;;;;;;5065496;28;20171;-87
2022/06/07 06:14:30;;;;;;;13.17;8.77;;;13.60;88.50;;;;;;5065539;28;20176;-87
2022/06/07 06:16:55;;;;;;;9.60;8.23;;;13.70;88.60;;;;;;5065577;28;20199;-87
2022/06/07 06:19:21;;;;;;;9.70;8.63;;;13.70;88.40;;;;;;5065772;28;20290;-87
2022/06/07 06:21:47;;;;;;;12.93;9.47;;;13.70;88.60;;;;;;5064629;28;20191;-86
2022/06/07 06:24:15;;;;;;;12.03;9.07;;;13.80;88.30;;;;;;5064655;28;20707;-88
2022/06/07 06:26:42;;;;;;;10.90;9.73;;;13.80;88.30;;;;;;5065125;28;20198;-87
2022/06/07 06:29:08;;;;;;;11.63;10.33;;;13.80;88.10;;;;;;5064686;28;20177;-88
2022/06/07 06:31:35;;;;;;;12.20;10.90;;;13.80;87.70;;;;;;5068598;28;20183;-87
2022/06/07 06:34:01;;;;;;;13.37;11.97;;;13.90;88.00;;;;;;5070262;28;20263;-88
2022/06/07 06:36:27;;;;;;;13.80;11.50;;;13.90;88.20;;;;;;5070018;28;20191;-87
2022/06/07 06:38:53;;;;;;;14.33;12.60;;;13.90;88.20;;;;;;5070928;28;20175;-87
2022/06/07 06:41:28;;;;;;;19.30;14.40;;;14.00;88.30;;;;;;5068928;28;20183;-87
2022/06/07 06:43:55;;;;;;;17.70;13.83;;;14.00;88.20;;;;;;5068382;28;20184;-87
2022/06/07 06:46:25;;;;;;;14.17;12.40;;;14.00;88.30;;;;;;5068800;28;20704;-86
2022/06/07 06:48:51;;;;;;;17.23;14.43;;;14.00;88.20;;;;;;5068576;28;20214;-88
2022/06/07 06:51:21;;;;;;;19.90;13.93;;;14.10;88.10;;;;;;5069342;28;20171;-86
2022/06/07 06:53:48;;;;;;;14.07;10.97;;;14.10;88.30;;;;;;5070084;28;20153;-88
2022/06/07 06:56:17;;;;;;;19.17;12.90;;;14.20;88.00;;;;;;5069087;28;20180;-87
2022/06/07 06:58:43;;;;;;;20.53;15.03;;;14.30;88.20;;;;;;5069048;28;20172;-87
2022/06/07 07:01:12;;;;;;;26.63;19.10;;;14.30;88.10;;;;;;5069034;28;20186;-87
2022/06/07 07:03:40;;;;;;;13.33;9.03;;;14.30;88.00;;;;;;5069170;28;20175;-87
2022/06/07 07:06:08;;;;;;;23.10;15.10;;;14.30;87.80;;;;;;5068804;28;20638;-86
2022/06/07 07:08:35;;;;;;;19.80;16.67;;;14.40;87.10;;;;;;5068479;28;20199;-87
2022/06/07 07:11:17;;;;;;;26.10;15.83;;;14.40;87.20;;;;;;5069568;28;20195;-87
2022/06/07 07:13:44;;;;;;;21.53;17.13;;;14.50;87.60;;;;;;5069118;28;20241;-87
2022/06/07 07:16:13;;;;;;;21.73;17.53;;;14.50;87.20;;;;;;5068406;28;20180;-86
2022/06/07 07:18:40;;;;;;;22.57;17.73;;;14.70;87.50;;;;;;5069694;28;20176;-88
2022/06/07 07:21:09;;;;;;;22.33;17.13;;;14.70;87.20;;;;;;5064778;28;20555;-87
2022/06/07 07:23:35;;;;;;;17.83;12.63;;;14.60;87.20;;;;;;5066713;28;20598;-87
2022/06/07 07:26:06;;;;;;;22.57;15.00;;;14.60;86.90;;;;;;5071999;28;20207;-87
2022/06/07 07:28:33;;;;;;;19.13;15.23;;;14.60;87.00;;;;;;5067464;28;20685;-85
2022/06/07 07:31:05;;;;;;;20.67;13.50;;;14.60;87.10;;;;;;5062093;28;20172;-87
2022/06/07 07:33:31;;;;;;;22.90;16.03;;;14.60;86.40;;;;;;5064435;28;20164;-87
2022/06/07 07:36:00;;;;;;;18.90;14.53;;;14.60;87.20;;;;;;5063557;28;20642;-87
2022/06/07 07:38:26;;;;;;;16.83;13.10;;;14.70;86.70;;;;;;5066193;28;20176;-87
2022/06/07 07:40:51;;;;;;;16.67;14.97;;;14.70;86.20;;;;;;5068172;28;20202;-87
2022/06/07 07:43:18;;;;;;;23.60;15.47;;;14.60;86.40;;;;;;5066917;28;20645;-86
2022/06/07 07:45:44;;;;;;;17.80;11.67;;;14.70;86.50;;;;;;5067298;28;20242;-87
2022/06/07 07:48:11;;;;;;;16.10;13.13;;;14.80;86.60;;;;;;5067109;28;20242;-87
2022/06/07 07:50:38;;;;;;;22.17;15.73;;;14.80;86.10;;;;;;5065822;28;20202;-87
2022/06/07 07:53:05;;;;;;;17.97;15.00;;;14.80;86.20;;;;;;5067456;28;20180;-87
2022/06/07 07:55:30;;;;;;;18.10;13.20;;;14.90;86.10;;;;;;5067141;28;20236;-88
2022/06/07 07:57:57;;;;;;;23.83;16.00;;;15.00;86.20;;;;;;5066239;28;20226;-87
2022/06/07 08:00:23;;;;;;;19.60;13.30;;;15.00;86.50;;;;;;5068114;28;20176;-86
2022/06/07 08:02:49;;;;;;;21.97;16.53;;;15.00;85.90;;;;;;5068217;28;20183;-86
2022/06/07 08:05:14;;;;;;;20.00;17.03;;;15.00;85.70;;;;;;5070493;28;20294;-87
2022/06/07 08:07:40;;;;;;;19.63;16.53;;;15.10;85.70;;;;;;5071213;28;20203;-88
2022/06/07 08:10:06;;;;;;;22.40;18.10;;;15.10;85.30;;;;;;5071240;28;20164;-86
2022/06/07 08:12:32;;;;;;;17.93;14.87;;;15.20;85.50;;;;;;5070843;28;20168;-87
2022/06/07 08:15:00;;;;;;;21.13;13.83;;;15.20;84.90;;;;;;5069960;28;20182;-87
2022/06/07 08:17:27;;;;;;;20.70;15.50;;;15.20;84.80;;;;;;5069245;28;20563;-86
2022/06/07 08:19:53;;;;;;;19.70;12.60;;;15.30;84.90;;;;;;5070009;28;20191;-87
2022/06/07 08:22:20;;;;;;;15.63;13.90;;;15.40;85.00;;;;;;5067995;28;20555;-87
2022/06/07 08:24:46;;;;;;;17.57;14.43;;;15.40;84.50;;;;;;5067358;28;20211;-86
2022/06/07 08:27:12;;;;;;;16.97;14.10;;;15.50;85.00;;;;;;5069487;28;20199;-86
2022/06/07 08:29:38;;;;;;;13.87;12.37;;;15.60;84.10;;;;;;5069031;28;20192;-86
2022/06/07 08:32:04;;;;;;;15.97;13.60;;;15.50;83.50;;;;;;5069437;28;20216;-87
2022/06/07 08:37:33;;;;;;;14.65;13.05;;;15.50;82.90;;;;;;5068616;28;20221;-86
2022/06/07 08:39:59;;;;;;;19.20;12.10;;;15.50;83.20;;;;;;5067344;28;20171;-86
2022/06/07 08:42:58;;;;;;;15.57;12.83;;;15.50;83.40;;;;;;5067908;28;20612;-86
2022/06/07 08:45:33;;;;;;;12.40;11.20;;;15.60;83.30;;;;;;5036096;28;20240;-86
2022/06/07 08:48:11;;;;;;;15.57;10.20;;;15.50;82.40;;;;;;5069807;28;20207;-86
2022/06/07 08:50:48;;;;;;;15.60;13.70;;;15.50;83.00;;;;;;5068201;28;20178;-86
2022/06/07 08:53:33;;;;;;;14.93;12.20;;;15.50;83.20;;;;;;5065113;28;20179;-86
2022/06/07 08:56:01;;;;;;;18.10;12.25;;;15.50;83.10;;;;;;5068403;28;20217;-86
2022/06/07 08:58:28;;;;;;;17.23;10.90;;;15.50;82.70;;;;;;5067559;28;20180;-87
2022/06/07 09:00:58;;;;;;;9.63;8.63;;;15.50;81.80;;;;;;5069861;28;20184;-87
2022/06/07 09:03:26;;;;;;;12.43;9.48;;;15.60;80.00;;;;;;5067822;28;20183;-87
2022/06/07 09:05:57;;;;;;;15.07;9.67;;;15.60;79.70;;;;;;5068385;28;20196;-86
2022/06/07 09:08:25;;;;;;;11.35;9.75;;;15.60;79.70;;;;;;5068475;28;20191;-86
2022/06/07 09:13:36;;;;;;;12.37;10.63;;;15.60;79.80;;;;;;5065351;28;20178;-87
2022/06/07 09:16:04;;;;;;;12.57;11.13;;;15.70;80.80;;;;;;5062066;28;20267;-86
2022/06/07 09:18:32;;;;;;;12.02;10.60;;;15.70;80.50;;;;;;5059943;28;20172;-87
2022/06/07 09:21:05;;;;;;;11.95;10.75;;;15.70;79.80;;;;;;5060126;28;20167;-87
2022/06/07 09:23:44;;;;;;;14.90;11.37;;;15.80;79.80;;;;;;5065222;28;20183;-89
2022/06/07 09:26:31;;;;;;;11.93;10.50;;;15.80;80.30;;;;;;5063935;28;20529;-88
2022/06/07 09:29:04;;;;;;;16.95;10.23;;;15.90;79.70;;;;;;5060799;28;20152;-87
2022/06/07 09:31:29;;;;;;;11.65;9.98;;;15.90;79.70;;;;;;5063825;28;20164;-87
2022/06/07 09:34:02;;;;;;;11.80;10.60;;;15.90;79.40;;;;;;5063058;28;20238;-87
2022/06/07 09:36:35;;;;;;;11.18;9.82;;;15.90;78.80;;;;;;5063302;28;20200;-87
2022/06/07 09:39:14;;;;;;;11.25;7.43;;;15.90;78.20;;;;;;5064410;28;20232;-86
2022/06/07 09:41:45;;;;;;;9.40;8.55;;;15.90;77.10;;;;;;5063870;28;20175;-86
2022/06/07 09:44:25;;;;;;;13.15;10.95;;;15.80;76.60;;;;;;5065435;28;20210;-87
2022/06/07 09:47:15;;;;;;;20.30;10.13;;;15.70;77.80;;;;;;5065732;28;20202;-87
2022/06/07 09:49:51;;;;;;;16.85;12.43;;;15.70;78.10;;;;;;5061134;28;20650;-88
2022/06/07 09:52:36;;;;;;;15.82;11.52;;;15.80;78.80;;;;;;5061953;28;20179;-88
2022/06/07 09:55:27;;;;;;;15.32;12.75;;;15.70;79.20;;;;;;5066742;28;20254;-87
2022/06/07 09:58:34;;;;;;;11.70;9.60;;;15.70;79.10;;;;;;5066607;28;20705;-87
2022/06/07 10:01:18;;;;;;;13.20;9.57;;;15.60;77.40;;;;;;5066095;28;20626;-86
2022/06/07 10:04:21;;;;;;;11.10;9.73;;;15.70;77.10;;;;;;5066929;28;20167;-87
2022/06/07 10:06:54;;;;;;;11.27;9.77;;;15.90;76.80;;;;;;5055171;28;20630;-88
2022/06/07 10:09:35;;;;;;;12.25;10.00;;;16.00;77.20;;;;;;5053298;28;20173;-87
2022/06/07 10:12:23;;;;;;;12.02;9.60;;;16.00;76.30;;;;;;5052996;28;20657;-87
2022/06/07 10:15:06;;;;;;;16.17;10.37;;;15.80;76.70;;;;;;5063821;28;20666;-86
2022/06/07 10:17:52;;;;;;;15.02;12.55;;;15.70;78.00;;;;;;5062552;28;20246;-88
2022/06/07 10:20:22;;;;;;;14.15;10.43;;;15.80;78.40;;;;;;5061957;28;20164;-87
2022/06/07 10:23:11;;;;;;;12.13;9.77;;;15.70;77.30;;;;;;5057314;28;20175;-87
2022/06/07 10:25:36;;;;;;;13.80;10.77;;;15.70;78.00;;;;;;5061752;28;20199;-87
2022/06/07 10:28:28;;;;;;;10.18;8.00;;;15.60;77.30;;;;;;5060578;28;20256;-88
2022/06/07 10:31:21;;;;;;;10.60;9.43;;;15.40;77.80;;;;;;5059987;28;20175;-87
2022/06/07 10:33:49;;;;;;;11.68;10.57;;;15.30;77.60;;;;;;5060771;28;20605;-87
2022/06/07 10:36:25;;;;;;;11.98;10.70;;;15.30;78.60;;;;;;5060593;28;20202;-88
2022/06/07 10:39:06;;;;;;;13.03;11.73;;;15.40;79.10;;;;;;5061822;28;20176;-87
2022/06/07 10:41:50;;;;;;;15.20;10.90;;;15.40;79.30;;;;;;5061543;28;20210;-87
2022/06/07 10:44:56;;;;;;;12.50;11.00;;;15.30;79.30;;;;;;5060746;28;20211;-85
2022/06/07 10:47:51;;;;;;;11.43;9.87;;;15.40;80.50;;;;;;5055790;28;20223;-87
2022/06/07 10:50:29;;;;;;;11.88;9.18;;;15.30;80.50;;;;;;5060790;28;20214;-88
2022/06/07 10:53:16;;;;;;;10.70;7.93;;;15.20;79.20;;;;;;5061588;28;20180;-87
2022/06/07 10:55:59;;;;;;;12.53;8.93;;;15.00;81.00;;;;;;5060868;28;20191;-87
2022/06/07 10:58:27;;;;;;;12.77;8.97;;;14.90;81.40;;;;;;5060555;28;20203;-87
2022/06/07 11:01:17;;;;;;;12.07;8.17;;;14.90;80.60;;;;;;5060553;28;20184;-88
2022/06/07 11:04:11;;;;;;;12.43;8.20;;;14.80;80.50;;;;;;5076491;22;20231;-88
2022/06/07 11:09:43;;;;;;;9.87;7.97;;;15.20;81.60;;;;;;5053019;28;20240;-87
2022/06/07 11:12:17;;;;;;;11.53;7.03;;;15.40;80.50;;;;;;5051368;28;20191;-87
2022/06/07 11:15:05;;;;;;;6.75;6.07;;;15.70;79.80;;;;;;5051387;28;20169;-87
2022/06/07 11:17:47;;;;;;;6.63;5.93;;;15.70;78.50;;;;;;5056404;28;20164;-86
2022/06/07 11:20:29;;;;;;;7.82;6.80;;;16.00;78.20;;;;;;5056308;28;20228;-87
2022/06/07 11:23:03;;;;;;;13.00;7.88;;;16.00;77.70;;;;;;5055041;28;20242;-87
2022/06/07 11:25:57;;;;;;;8.25;6.93;;;16.00;77.80;;;;;;5054795;28;20321;-87
2022/06/07 11:28:46;;;;;;;13.25;8.70;;;15.90;77.20;;;;;;5055740;28;20265;-87
2022/06/07 11:31:23;;;;;;;8.75;6.72;;;16.00;79.20;;;;;;5055244;28;20169;-87
2022/06/07 11:33:52;;;;;;;8.07;6.35;;;15.80;77.20;;;;;;5055951;28;20696;-89
2022/06/07 11:36:20;;;;;;;9.35;7.30;;;15.80;77.80;;;;;;5056266;28;20181;-87
2022/06/07 11:38:55;;;;;;;14.43;7.20;;;16.00;77.80;;;;;;5054777;28;20171;-87
2022/06/07 11:41:38;;;;;;;7.40;6.70;;;15.90;77.60;;;;;;5055223;28;20515;-89
2022/06/07 11:44:10;;;;;;;10.10;6.60;;;16.00;78.20;;;;;;5054561;28;20160;-89
2022/06/07 11:46:35;;;;;;;6.87;6.17;;;16.00;77.60;;;;;;5055797;28;20171;-89
2022/06/07 11:49:26;;;;;;;8.80;6.53;;;16.00;76.30;;;;;;5054621;28;20187;-89
2022/06/07 11:52:11;;;;;;;7.68;5.30;;;16.20;77.80;;;;;;5055535;28;20284;-89
2022/06/07 11:54:48;;;;;;;11.50;5.30;;;16.20;76.70;;;;;;5055467;28;20200;-89
2022/06/07 11:57:23;;;;;;;6.30;5.20;;;16.20;77.40;;;;;;5054457;28;20175;-89
2022/06/07 11:59:51;;;;;;;8.40;4.45;;;16.10;77.40;;;;;;5055581;28;20672;-89
2022/06/07 12:02:17;;;;;;;8.65;5.88;;;16.00;77.70;;;;;;5054221;28;20208;-89
2022/06/07 12:04:45;;;;;;;9.05;6.85;;;16.00;77.30;;;;;;5054822;28;20199;-89
2022/06/07 12:07:21;;;;;;;10.23;8.48;;;15.90;76.80;;;;;;5054209;28;20180;-88
2022/06/07 12:09:59;;;;;;;10.70;7.68;;;16.00;77.80;;;;;;5054132;28;20156;-89
2022/06/07 12:12:31;;;;;;;10.88;8.05;;;15.90;76.80;;;;;;5054108;28;20287;-87
2022/06/07 12:15:40;;;;;;;10.48;8.30;;;16.00;77.50;;;;;;5053989;28;20540;-89
2022/06/07 12:18:17;;;;;;;15.98;7.97;;;16.10;77.80;;;;;;5039335;28;20214;-89
2022/06/07 12:20:51;;;;;;;9.05;7.07;;;16.20;76.70;;;;;;5054011;28;20174;-89
2022/06/07 12:23:37;;;;;;;11.00;7.10;;;16.50;75.90;;;;;;5053845;28;20742;-89
2022/06/07 12:26:26;;;;;;;9.02;5.60;;;16.50;75.40;;;;;;5053858;28;20788;-87
2022/06/07 12:29:18;;;;;;;8.40;4.22;;;16.60;74.60;;;;;;5052984;28;20176;-89
2022/06/07 12:31:51;;;;;;;7.38;4.65;;;16.50;74.80;;;;;;5054937;28;20156;-89
2022/06/07 12:34:27;;;;;;;6.72;4.50;;;16.70;75.30;;;;;;5053766;28;20550;-89
2022/06/07 12:37:09;;;;;;;9.85;6.13;;;16.50;73.90;;;;;;5054967;28;20180;-89
2022/06/07 12:39:59;;;;;;;11.52;7.03;;;16.40;75.30;;;;;;5053653;28;20193;-90
2022/06/07 12:42:28;;;;;;;14.02;6.30;;;16.50;75.90;;;;;;5053643;28;20223;-89
2022/06/07 12:45:13;;;;;;;10.05;5.90;;;16.70;74.90;;;;;;5054926;28;20192;-90
2022/06/07 12:47:39;;;;;;;9.25;6.20;;;16.50;74.70;;;;;;5054552;28;20203;-89
2022/06/07 12:50:21;;;;;;;10.35;7.05;;;16.50;74.70;;;;;;5053342;28;20211;-90
2022/06/07 12:52:52;;;;;;;10.95;7.78;;;16.60;74.70;;;;;;5053423;28;20216;-90
2022/06/07 12:55:28;;;;;;;9.07;6.10;;;16.40;74.80;;;;;;5053635;28;20237;-90
2022/06/07 12:58:02;;;;;;;17.55;6.97;;;16.50;74.70;;;;;;5053299;28;20183;-90
2022/06/07 13:00:41;;;;;;;10.90;6.72;;;16.90;73.70;;;;;;5054317;28;20172;-88
2022/06/07 13:03:24;;;;;;;8.77;7.25;;;16.90;73.90;;;;;;5053257;28;20215;-88
2022/06/07 13:06:18;;;;;;;8.65;7.07;;;16.70;74.90;;;;;;5053063;28;20232;-88
2022/06/07 13:08:54;;;;;;;10.07;7.30;;;16.70;74.20;;;;;;5054197;28;20164;-88
2022/06/07 13:11:20;;;;;;;10.98;8.15;;;16.60;74.50;;;;;;5053928;28;20203;-88
2022/06/07 13:13:46;;;;;;;14.18;8.65;;;16.30;75.20;;;;;;5052994;28;20240;-89
2022/06/07 13:16:11;;;;;;;15.05;9.10;;;16.30;76.30;;;;;;5052994;28;20718;-88
2022/06/07 13:18:41;;;;;;;10.40;8.90;;;16.20;77.70;;;;;;5053908;28;20184;-90
2022/06/07 13:21:30;;;;;;;15.77;10.18;;;16.50;76.50;;;;;;5052931;28;20172;-88